createdAt,value
2023-03-06T00:00:58.797Z,91.75
2023-03-06T00:01:58.774Z,91.71
2023-03-06T00:02:58.783Z,91.85
2023-03-06T00:03:58.793Z,91.75
2023-03-06T00:04:58.755Z,92.16
2023-03-06T00:05:59.133Z,91.75
2023-03-06T00:06:58.724Z,92.06
2023-03-06T00:07:58.726Z,91.64
2023-03-06T00:08:58.711Z,91.75
2023-03-06T00:09:58.709Z,91.64
2023-03-06T00:10:58.731Z,92.79
2023-03-06T00:11:58.696Z,92.37
2023-03-06T00:12:58.680Z,92.69
2023-03-06T00:13:58.666Z,92.47
2023-03-06T00:14:58.657Z,92.52
2023-03-06T00:15:58.693Z,92.37
2023-03-06T00:16:58.643Z,92.47
2023-03-06T00:17:58.636Z,92.27
2023-03-06T00:18:58.621Z,92.21
2023-03-06T00:19:58.656Z,92.27
2023-03-06T00:20:58.632Z,91.96
2023-03-06T00:21:58.592Z,92.52
2023-03-06T00:22:58.610Z,92.31
2023-03-06T00:23:58.573Z,92.63
2023-03-06T00:24:58.563Z,92.73
2023-03-06T00:25:58.596Z,92.73
2023-03-06T00:26:58.571Z,92.83
2023-03-06T00:27:58.542Z,92.52
2023-03-06T00:28:58.523Z,92.52
2023-03-06T00:29:58.526Z,92.83
2023-03-06T00:30:58.530Z,92.52
2023-03-06T00:31:58.517Z,92.73
2023-03-06T00:32:58.499Z,92.83
2023-03-06T00:33:58.486Z,92.83
2023-03-06T00:34:58.481Z,93.04
2023-03-06T00:35:58.508Z,93.04
2023-03-06T00:36:58.463Z,92.63
2023-03-06T00:37:58.447Z,93.15
2023-03-06T00:38:58.440Z,93.15
2023-03-06T00:39:58.445Z,93.10
2023-03-06T00:40:58.471Z,93.15
2023-03-06T00:41:58.427Z,93.25
2023-03-06T00:42:58.397Z,93.25
2023-03-06T00:43:58.400Z,93.35
2023-03-06T00:44:58.380Z,93.04
2023-03-06T00:45:58.436Z,93.35
2023-03-06T00:46:58.368Z,93.67
2023-03-06T00:47:58.386Z,93.35
2023-03-06T00:48:58.340Z,93.41
2023-03-06T00:49:58.326Z,94.40
2023-03-06T00:50:58.332Z,94.04
2023-03-06T00:51:58.313Z,94.50
2023-03-06T00:52:58.325Z,94.40
2023-03-06T00:53:58.294Z,93.98
2023-03-06T00:54:58.289Z,94.29
2023-03-06T00:55:58.319Z,93.46
2023-03-06T00:56:58.271Z,93.77
2023-03-06T00:57:58.250Z,94.29
2023-03-06T00:58:58.254Z,93.77
2023-03-06T00:59:58.249Z,93.57
2023-03-06T01:00:58.256Z,93.57
2023-03-06T01:01:58.325Z,93.98
2023-03-06T01:02:58.207Z,93.67
2023-03-06T01:03:58.198Z,94.09
2023-03-06T01:04:58.185Z,93.67
2023-03-06T01:05:59.202Z,94.09
2023-03-06T01:06:58.168Z,93.67
2023-03-06T01:07:58.172Z,93.77
2023-03-06T01:08:58.142Z,93.77
2023-03-06T01:09:58.146Z,93.57
2023-03-06T01:10:58.179Z,93.98
2023-03-06T01:11:58.111Z,93.46
2023-03-06T01:12:58.117Z,93.88
2023-03-06T01:13:58.108Z,93.88
2023-03-06T01:14:58.085Z,93.67
2023-03-06T01:15:58.091Z,93.63
2023-03-06T01:16:58.109Z,93.77
2023-03-06T01:17:58.067Z,93.88
2023-03-06T01:18:59.043Z,93.77
2023-03-06T01:19:58.037Z,93.63
2023-03-06T01:20:58.023Z,93.84
2023-03-06T01:21:58.010Z,93.63
2023-03-06T01:22:58.020Z,93.73
2023-03-06T01:23:57.997Z,93.73
2023-03-06T01:24:58.002Z,93.63
2023-03-06T01:25:58.011Z,94.15
2023-03-06T01:26:57.972Z,93.73
2023-03-06T01:27:57.962Z,94.15
2023-03-06T01:28:57.968Z,94.15
2023-03-06T01:29:57.939Z,93.73
2023-03-06T01:30:57.944Z,93.94
2023-03-06T01:31:57.937Z,93.73
2023-03-06T01:32:57.906Z,94.15
2023-03-06T01:33:57.905Z,93.63
2023-03-06T01:34:57.890Z,93.73
2023-03-06T01:35:57.915Z,93.84
2023-03-06T01:36:57.870Z,93.94
2023-03-06T01:37:57.869Z,93.84
2023-03-06T01:38:57.864Z,93.94
2023-03-06T01:39:57.853Z,93.73
2023-03-06T01:40:57.883Z,93.73
2023-03-06T01:41:57.835Z,93.73
2023-03-06T01:42:57.838Z,93.73
2023-03-06T01:43:57.813Z,94.25
2023-03-06T01:44:57.802Z,94.25
2023-03-06T01:45:57.836Z,93.94
2023-03-06T01:46:57.797Z,93.94
2023-03-06T01:47:57.779Z,93.94
2023-03-06T01:48:57.775Z,93.94
2023-03-06T01:49:57.765Z,93.84
2023-03-06T01:50:57.766Z,94.35
2023-03-06T01:51:57.756Z,94.15
2023-03-06T01:52:57.741Z,94.15
2023-03-06T01:53:57.723Z,94.04
2023-03-06T01:54:57.716Z,93.73
2023-03-06T01:55:57.727Z,93.63
2023-03-06T01:56:57.700Z,94.04
2023-03-06T01:57:57.789Z,94.35
2023-03-06T01:58:57.682Z,94.46
2023-03-06T01:59:57.667Z,94.35
2023-03-06T02:00:57.716Z,94.15
2023-03-06T02:01:57.711Z,94.31
2023-03-06T02:02:57.660Z,94.21
2023-03-06T02:03:57.630Z,94.15
2023-03-06T02:04:57.632Z,94.21
2023-03-06T02:05:57.611Z,94.10
2023-03-06T02:06:57.603Z,94.21
2023-03-06T02:07:57.662Z,94.42
2023-03-06T02:08:57.590Z,94.00
2023-03-06T02:09:57.589Z,94.04
2023-03-06T02:10:57.578Z,94.42
2023-03-06T02:11:57.603Z,94.52
2023-03-06T02:12:57.576Z,94.31
2023-03-06T02:13:57.562Z,94.31
2023-03-06T02:14:57.545Z,94.42
2023-03-06T02:15:58.529Z,94.63
2023-03-06T02:16:57.614Z,94.63
2023-03-06T02:17:57.517Z,94.48
2023-03-06T02:18:57.499Z,94.52
2023-03-06T02:19:57.508Z,94.48
2023-03-06T02:20:57.489Z,94.58
2023-03-06T02:21:57.500Z,94.48
2023-03-06T02:22:57.476Z,94.27
2023-03-06T02:23:57.483Z,94.06
2023-03-06T02:24:57.460Z,94.31
2023-03-06T02:25:57.449Z,94.48
2023-03-06T02:26:57.440Z,94.10
2023-03-06T02:27:57.438Z,94.06
2023-03-06T02:28:57.456Z,93.96
2023-03-06T02:29:57.420Z,93.96
2023-03-06T02:30:57.421Z,93.96
2023-03-06T02:31:57.392Z,94.12
2023-03-06T02:32:57.397Z,94.06
2023-03-06T02:33:57.395Z,94.06
2023-03-06T02:34:57.386Z,94.10
2023-03-06T02:35:57.410Z,93.96
2023-03-06T02:36:57.377Z,94.06
2023-03-06T02:37:57.351Z,94.02
2023-03-06T02:38:57.328Z,94.12
2023-03-06T02:39:57.326Z,93.71
2023-03-06T02:40:57.318Z,93.96
2023-03-06T02:41:57.333Z,93.85
2023-03-06T02:42:57.308Z,94.12
2023-03-06T02:43:57.291Z,93.81
2023-03-06T02:44:57.282Z,93.85
2023-03-06T02:45:57.300Z,93.85
2023-03-06T02:46:57.281Z,94.02
2023-03-06T02:47:57.259Z,93.65
2023-03-06T02:48:57.271Z,93.75
2023-03-06T02:49:57.247Z,93.81
2023-03-06T02:50:57.244Z,94.17
2023-03-06T02:51:57.255Z,93.85
2023-03-06T02:52:57.215Z,93.75
2023-03-06T02:53:57.224Z,94.06
2023-03-06T02:54:57.196Z,93.54
2023-03-06T02:55:57.191Z,93.75
2023-03-06T02:56:57.287Z,93.54
2023-03-06T02:57:57.165Z,93.54
2023-03-06T02:58:57.162Z,93.54
2023-03-06T02:59:57.168Z,93.65
2023-03-06T03:00:57.158Z,93.65
2023-03-06T03:01:57.158Z,93.75
2023-03-06T03:02:57.131Z,93.85
2023-03-06T03:03:57.142Z,93.65
2023-03-06T03:04:57.203Z,93.65
2023-03-06T03:05:57.109Z,93.96
2023-03-06T03:06:57.107Z,93.65
2023-03-06T03:07:57.091Z,93.50
2023-03-06T03:08:57.081Z,93.85
2023-03-06T03:09:57.089Z,93.85
2023-03-06T03:10:57.080Z,94.17
2023-03-06T03:11:57.098Z,94.06
2023-03-06T03:12:57.052Z,94.17
2023-03-06T03:13:57.062Z,94.33
2023-03-06T03:14:57.035Z,94.37
2023-03-06T03:15:57.037Z,94.27
2023-03-06T03:16:57.036Z,94.06
2023-03-06T03:17:57.018Z,93.75
2023-03-06T03:18:56.995Z,93.96
2023-03-06T03:19:56.998Z,94.17
2023-03-06T03:20:56.979Z,93.96
2023-03-06T03:21:57.022Z,94.06
2023-03-06T03:22:56.979Z,94.17
2023-03-06T03:23:56.962Z,94.06
2023-03-06T03:24:57.108Z,94.17
2023-03-06T03:25:56.939Z,93.96
2023-03-06T03:26:56.950Z,93.96
2023-03-06T03:27:56.938Z,93.96
2023-03-06T03:28:56.912Z,94.17
2023-03-06T03:29:56.919Z,94.23
2023-03-06T03:30:56.977Z,93.44
2023-03-06T03:31:56.916Z,93.75
2023-03-06T03:32:56.884Z,93.54
2023-03-06T03:33:56.870Z,93.96
2023-03-06T03:34:56.866Z,93.96
2023-03-06T03:35:56.864Z,93.96
2023-03-06T03:36:56.855Z,93.96
2023-03-06T03:37:57.849Z,93.96
2023-03-06T03:38:56.876Z,93.85
2023-03-06T03:39:56.860Z,93.33
2023-03-06T03:40:56.893Z,93.50
2023-03-06T03:41:56.877Z,93.33
2023-03-06T03:42:56.831Z,93.65
2023-03-06T03:43:56.801Z,93.75
2023-03-06T03:44:56.786Z,93.40
2023-03-06T03:45:56.772Z,93.85
2023-03-06T03:46:56.824Z,93.50
2023-03-06T03:47:56.764Z,93.96
2023-03-06T03:48:56.748Z,93.54
2023-03-06T03:49:56.739Z,93.54
2023-03-06T03:50:56.738Z,93.65
2023-03-06T03:51:56.746Z,93.65
2023-03-06T03:52:56.712Z,93.85
2023-03-06T03:53:56.715Z,93.71
2023-03-06T03:54:56.705Z,93.50
2023-03-06T03:55:56.687Z,93.65
2023-03-06T03:56:56.710Z,93.85
2023-03-06T03:57:56.679Z,93.81
2023-03-06T03:58:56.752Z,93.54
2023-03-06T03:59:56.682Z,93.54
2023-03-06T04:00:56.647Z,93.65
2023-03-06T04:01:56.713Z,93.50
2023-03-06T04:02:56.628Z,93.91
2023-03-06T04:03:57.623Z,93.54
2023-03-06T04:04:56.639Z,93.85
2023-03-06T04:05:56.602Z,93.81
2023-03-06T04:06:56.617Z,93.44
2023-03-06T04:07:56.593Z,93.54
2023-03-06T04:08:56.592Z,94.17
2023-03-06T04:11:31.145Z,93.65
2023-03-06T04:12:31.154Z,93.65
2023-03-06T04:13:31.144Z,93.85
2023-03-06T04:14:31.128Z,93.96
2023-03-06T04:15:31.122Z,93.96
2023-03-06T04:16:31.189Z,94.06
2023-03-06T04:17:31.104Z,94.17
2023-03-06T04:18:32.227Z,93.85
2023-03-06T04:19:32.220Z,93.75
2023-03-06T04:20:32.212Z,94.27
2023-03-06T04:21:32.267Z,94.27
2023-03-06T04:22:32.200Z,94.27
2023-03-06T04:23:32.197Z,94.17
2023-03-06T04:24:32.187Z,94.06
2023-03-06T04:25:32.180Z,94.27
2023-03-06T04:26:32.205Z,94.06
2023-03-06T04:27:32.169Z,94.37
2023-03-06T04:28:32.163Z,94.48
2023-03-06T04:29:32.152Z,94.58
2023-03-06T04:30:32.195Z,94.37
2023-03-06T04:31:32.139Z,94.48
2023-03-06T04:32:32.138Z,94.48
2023-03-06T04:33:32.128Z,94.27
2023-03-06T04:34:32.103Z,94.27
2023-03-06T04:35:32.172Z,94.48
2023-03-06T04:36:32.110Z,94.37
2023-03-06T04:37:32.077Z,94.58
2023-03-06T04:38:32.095Z,94.69
2023-03-06T04:39:32.076Z,94.58
2023-03-06T04:40:32.068Z,94.58
2023-03-06T04:41:32.047Z,94.79
2023-03-06T04:42:32.072Z,94.48
2023-03-06T04:43:32.046Z,94.69
2023-03-06T04:44:32.027Z,94.79
2023-03-06T04:45:32.076Z,94.37
2023-03-06T04:46:32.011Z,95.00
2023-03-06T04:47:32.050Z,94.79
2023-03-06T04:48:31.995Z,94.58
2023-03-06T04:49:31.979Z,95.10
2023-03-06T04:50:31.976Z,94.96
2023-03-06T04:51:31.968Z,95.00
2023-03-06T04:52:31.983Z,94.69
2023-03-06T04:53:31.965Z,94.69
2023-03-06T04:54:31.961Z,95.00
2023-03-06T04:55:31.947Z,94.48
2023-03-06T04:56:31.961Z,95.00
2023-03-06T04:57:31.958Z,94.90
2023-03-06T04:58:31.929Z,94.90
2023-03-06T04:59:31.922Z,95.00
2023-03-06T05:00:31.924Z,95.10
2023-03-06T05:01:31.903Z,95.10
2023-03-06T05:02:31.957Z,95.37
2023-03-06T05:03:31.871Z,95.52
2023-03-06T05:04:31.867Z,95.62
2023-03-06T05:05:31.868Z,95.83
2023-03-06T05:06:31.852Z,95.42
2023-03-06T05:07:31.879Z,96.04
2023-03-06T05:08:31.835Z,95.94
2023-03-06T05:09:31.826Z,95.94
2023-03-06T05:10:31.852Z,95.83
2023-03-06T05:11:31.813Z,95.62
2023-03-06T05:12:31.824Z,95.94
2023-03-06T05:13:31.800Z,95.83
2023-03-06T05:14:31.784Z,95.62
2023-03-06T05:15:31.792Z,95.62
2023-03-06T05:16:31.792Z,95.94
2023-03-06T05:17:31.778Z,95.62
2023-03-06T05:18:31.764Z,95.62
2023-03-06T05:19:31.739Z,95.62
2023-03-06T05:20:31.780Z,95.62
2023-03-06T05:21:31.730Z,95.21
2023-03-06T05:22:31.745Z,95.10
2023-03-06T05:23:31.718Z,95.31
2023-03-06T05:24:31.743Z,95.73
2023-03-06T05:25:31.702Z,95.52
2023-03-06T05:26:31.696Z,95.42
2023-03-06T05:27:31.704Z,96.04
2023-03-06T05:28:31.684Z,95.42
2023-03-06T05:29:31.675Z,95.31
2023-03-06T05:30:31.668Z,95.42
2023-03-06T05:31:31.715Z,95.31
2023-03-06T05:32:33.324Z,95.42
2023-03-06T05:33:31.654Z,95.83
2023-03-06T05:34:31.628Z,95.83
2023-03-06T05:35:31.635Z,95.89
2023-03-06T05:36:31.640Z,95.73
2023-03-06T05:37:31.648Z,96.00
2023-03-06T05:38:31.605Z,95.73
2023-03-06T05:39:31.600Z,96.15
2023-03-06T05:40:31.600Z,96.25
2023-03-06T05:41:31.594Z,96.15
2023-03-06T05:42:31.612Z,96.11
2023-03-06T05:43:31.574Z,96.11
2023-03-06T05:44:31.564Z,96.21
2023-03-06T05:45:31.585Z,96.21
2023-03-06T05:46:31.554Z,95.73
2023-03-06T05:47:31.563Z,95.68
2023-03-06T05:48:31.542Z,95.89
2023-03-06T05:49:31.521Z,96.11
2023-03-06T05:50:31.505Z,96.00
2023-03-06T05:51:32.533Z,95.79
2023-03-06T05:52:31.514Z,96.00
2023-03-06T05:53:31.485Z,95.89
2023-03-06T05:54:31.485Z,95.64
2023-03-06T05:55:31.473Z,95.79
2023-03-06T05:56:31.464Z,95.64
2023-03-06T05:57:31.474Z,95.85
2023-03-06T05:58:31.450Z,95.89
2023-03-06T05:59:31.446Z,96.16
2023-03-06T06:00:31.426Z,95.85
2023-03-06T06:01:31.478Z,95.89
2023-03-06T06:02:31.500Z,95.89
2023-03-06T06:03:31.478Z,95.75
2023-03-06T06:04:31.399Z,95.75
2023-03-06T06:05:31.390Z,95.79
2023-03-06T06:06:31.390Z,95.64
2023-03-06T06:07:31.562Z,95.68
2023-03-06T06:08:31.375Z,96.11
2023-03-06T06:09:31.363Z,95.58
2023-03-06T06:10:31.358Z,95.33
2023-03-06T06:11:31.346Z,95.75
2023-03-06T06:12:31.376Z,95.23
2023-03-06T06:13:31.322Z,95.33
2023-03-06T06:14:31.315Z,95.54
2023-03-06T06:15:31.360Z,95.79
2023-03-06T06:16:31.306Z,96.00
2023-03-06T06:17:31.325Z,95.37
2023-03-06T06:18:31.287Z,95.48
2023-03-06T06:19:31.278Z,95.54
2023-03-06T06:20:31.269Z,95.58
2023-03-06T06:21:31.272Z,95.37
2023-03-06T06:22:31.272Z,95.33
2023-03-06T06:23:31.245Z,95.58
2023-03-06T06:24:31.239Z,95.37
2023-03-06T06:25:31.230Z,95.58
2023-03-06T06:26:31.218Z,95.58
2023-03-06T06:27:31.236Z,95.27
2023-03-06T06:28:31.217Z,95.58
2023-03-06T06:29:31.207Z,95.37
2023-03-06T06:30:31.210Z,95.58
2023-03-06T06:31:31.300Z,95.58
2023-03-06T06:32:31.283Z,95.58
2023-03-06T06:33:31.207Z,95.37
2023-03-06T06:34:31.166Z,95.68
2023-03-06T06:35:31.196Z,95.79
2023-03-06T06:36:31.149Z,95.48
2023-03-06T06:37:31.159Z,95.58
2023-03-06T06:38:31.135Z,95.58
2023-03-06T06:39:31.125Z,95.27
2023-03-06T06:40:31.122Z,95.58
2023-03-06T06:41:46.664Z,95.79
2023-03-06T06:42:38.259Z,95.75
2023-03-06T06:43:33.093Z,95.64
2023-03-06T06:44:31.090Z,95.64
2023-03-06T06:45:31.082Z,95.75
2023-03-06T06:47:19.312Z,95.95
2023-03-06T06:47:33.128Z,95.91
2023-03-06T06:48:31.052Z,96.12
2023-03-06T06:49:31.046Z,96.22
2023-03-06T06:50:31.035Z,95.85
2023-03-06T06:51:31.032Z,96.16
2023-03-06T06:52:31.038Z,95.91
2023-03-06T06:53:31.018Z,96.12
2023-03-06T06:54:31.020Z,96.12
2023-03-06T06:55:31.006Z,95.64
2023-03-06T06:56:31.013Z,95.81
2023-03-06T06:57:31.002Z,95.60
2023-03-06T06:58:30.984Z,95.39
2023-03-06T06:59:30.963Z,95.50
2023-03-06T07:00:30.960Z,95.50
2023-03-06T07:01:31.002Z,95.50
2023-03-06T07:02:30.965Z,95.29
2023-03-06T07:03:30.968Z,95.66
2023-03-06T07:04:30.934Z,95.03
2023-03-06T07:05:30.913Z,95.70
2023-03-06T07:06:30.910Z,95.39
2023-03-06T07:07:30.927Z,95.56
2023-03-06T07:08:30.889Z,95.66
2023-03-06T07:09:30.933Z,95.87
2023-03-06T07:10:30.878Z,95.72
2023-03-06T07:11:30.873Z,95.83
2023-03-06T07:12:30.894Z,95.72
2023-03-06T07:13:30.852Z,95.40
2023-03-06T07:14:30.847Z,94.68
2023-03-06T07:15:30.856Z,94.47
2023-03-06T07:16:30.840Z,94.74
2023-03-06T07:17:30.860Z,94.12
2023-03-06T07:18:30.806Z,94.12
2023-03-06T07:19:30.809Z,93.91
2023-03-06T07:20:30.806Z,93.39
2023-03-06T07:21:30.790Z,93.29
2023-03-06T07:22:38.720Z,93.49
2023-03-06T07:23:32.775Z,93.07
2023-03-06T07:24:30.771Z,93.85
2023-03-06T07:25:30.775Z,93.60
2023-03-06T07:26:32.768Z,92.39
2023-03-06T07:27:30.819Z,92.49
2023-03-06T07:28:37.616Z,92.45
2023-03-06T07:29:31.729Z,92.80
2023-03-06T07:30:30.725Z,92.80
2023-03-06T07:31:30.792Z,92.39
2023-03-06T07:32:30.780Z,92.18
2023-03-06T07:33:30.687Z,91.77
2023-03-06T07:34:30.683Z,91.87
2023-03-06T07:35:30.752Z,91.77
2023-03-06T07:36:30.668Z,91.87
2023-03-06T07:37:30.666Z,91.77
2023-03-06T07:38:30.640Z,92.08
2023-03-06T07:39:30.655Z,92.03
2023-03-06T07:40:30.626Z,92.08
2023-03-06T07:41:30.614Z,92.18
2023-03-06T07:42:30.622Z,91.97
2023-03-06T07:43:30.603Z,92.24
2023-03-06T07:44:30.586Z,92.60
2023-03-06T07:45:30.574Z,92.24
2023-03-06T07:46:30.614Z,92.45
2023-03-06T07:47:30.578Z,92.24
2023-03-06T07:48:30.560Z,92.76
2023-03-06T07:49:30.539Z,92.45
2023-03-06T07:50:30.529Z,92.45
2023-03-06T07:51:30.543Z,92.55
2023-03-06T07:52:30.526Z,91.89
2023-03-06T07:53:30.502Z,91.62
2023-03-06T07:54:30.500Z,91.27
2023-03-06T07:55:30.483Z,91.16
2023-03-06T07:56:30.485Z,91.41
2023-03-06T07:57:30.507Z,91.00
2023-03-06T07:58:30.455Z,91.27
2023-03-06T07:59:30.484Z,91.41
2023-03-06T08:00:30.457Z,91.37
2023-03-06T08:01:30.439Z,91.43
2023-03-06T08:02:30.438Z,91.47
2023-03-06T08:03:30.505Z,91.53
2023-03-06T08:04:30.397Z,90.75
2023-03-06T08:05:30.421Z,91.58
2023-03-06T08:06:30.398Z,91.27
2023-03-06T08:07:30.383Z,91.37
2023-03-06T08:08:30.406Z,91.16
2023-03-06T08:09:30.452Z,91.16
2023-03-06T08:10:30.389Z,91.31
2023-03-06T08:11:30.335Z,91.31
2023-03-06T08:12:30.316Z,91.37
2023-03-06T08:13:30.341Z,91.16
2023-03-06T08:14:30.357Z,91.37
2023-03-06T08:15:30.284Z,91.37
2023-03-06T08:16:30.330Z,91.02
2023-03-06T08:17:30.305Z,90.95
2023-03-06T08:18:30.273Z,90.95
2023-03-06T08:19:30.253Z,91.06
2023-03-06T08:20:30.239Z,91.06
2023-03-06T08:21:30.231Z,91.27
2023-03-06T08:22:30.227Z,90.60
2023-03-06T08:23:30.250Z,90.81
2023-03-06T08:24:30.219Z,90.39
2023-03-06T08:25:30.182Z,90.60
2023-03-06T08:26:30.188Z,90.50
2023-03-06T08:27:30.173Z,89.98
2023-03-06T08:28:30.173Z,90.19
2023-03-06T08:29:31.552Z,89.67
2023-03-06T08:30:30.138Z,89.83
2023-03-06T08:31:30.232Z,89.83
2023-03-06T08:32:30.140Z,89.77
2023-03-06T08:33:30.150Z,89.52
2023-03-06T08:34:30.091Z,88.90
2023-03-06T08:35:30.121Z,89.31
2023-03-06T08:36:30.070Z,88.90
2023-03-06T08:37:30.149Z,89.00
2023-03-06T08:38:30.085Z,88.90
2023-03-06T08:39:30.037Z,88.69
2023-03-06T08:40:30.031Z,88.07
2023-03-06T08:41:30.018Z,88.28
2023-03-06T08:42:30.015Z,88.02
2023-03-06T08:43:30.029Z,88.02
2023-03-06T08:44:30.042Z,87.65
2023-03-06T08:45:30.005Z,87.51
2023-03-06T08:46:29.955Z,87.09
2023-03-06T08:47:29.955Z,86.68
2023-03-06T08:48:29.978Z,86.47
2023-03-06T08:49:30.803Z,86.36
2023-03-06T08:50:29.956Z,86.47
2023-03-06T08:51:30.926Z,86.47
2023-03-06T08:52:29.896Z,85.74
2023-03-06T08:53:42.213Z,85.43
2023-03-06T08:54:31.881Z,85.39
2023-03-06T08:55:29.865Z,85.29
2023-03-06T08:56:29.850Z,85.33
2023-03-06T08:57:29.836Z,85.02
2023-03-06T08:58:29.855Z,84.88
2023-03-06T08:59:29.818Z,84.88
2023-03-06T09:00:29.840Z,84.56
2023-03-06T09:01:29.887Z,84.36
2023-03-06T09:02:30.683Z,84.36
2023-03-06T09:03:29.980Z,84.46
2023-03-06T09:04:29.754Z,84.11
2023-03-06T09:05:29.756Z,84.31
2023-03-06T09:06:29.737Z,84.31
2023-03-06T09:07:29.725Z,84.31
2023-03-06T09:08:29.730Z,84.17
2023-03-06T09:09:29.708Z,84.11
2023-03-06T09:10:29.714Z,83.65
2023-03-06T09:11:30.699Z,83.45
2023-03-06T09:12:32.647Z,83.24
2023-03-06T09:13:30.661Z,83.86
2023-03-06T09:24:52.404Z,83.28
2023-03-06T09:25:52.390Z,82.86
2023-03-06T09:26:52.383Z,83.34
2023-03-06T09:28:08.654Z,83.17
2023-03-06T09:28:53.379Z,83.03
2023-03-06T09:29:52.352Z,83.28
2023-03-06T09:30:52.369Z,82.76
2023-03-06T09:31:52.324Z,82.34
2023-03-06T09:32:52.321Z,82.24
2023-03-06T09:33:52.318Z,82.55
2023-03-06T09:34:53.441Z,81.68
2023-03-06T09:35:53.487Z,81.79
2023-03-06T09:36:57.268Z,81.68
2023-03-06T09:37:54.382Z,80.96
2023-03-06T09:38:53.403Z,80.85
2023-03-06T09:39:53.367Z,80.65
2023-03-06T09:40:53.362Z,80.40
2023-03-06T09:41:53.383Z,80.13
2023-03-06T09:42:53.332Z,79.88
2023-03-06T09:43:53.348Z,80.19
2023-03-06T09:44:53.301Z,79.54
2023-03-06T09:45:53.328Z,78.85
2023-03-06T09:46:53.297Z,78.50
2023-03-06T09:47:53.304Z,78.40
2023-03-06T09:48:53.281Z,77.50
2023-03-06T09:49:53.252Z,77.09
2023-03-06T09:50:53.253Z,76.91
2023-03-06T09:51:53.231Z,76.36
2023-03-06T09:52:53.217Z,76.50
2023-03-06T09:53:53.265Z,78.67
2023-03-06T09:54:53.197Z,78.57
2023-03-06T09:55:53.174Z,77.84
2023-03-06T09:56:53.169Z,77.22
2023-03-06T09:57:53.169Z,76.61
2023-03-06T09:58:53.166Z,76.50
2023-03-06T09:59:53.144Z,76.09
2023-03-06T10:00:53.135Z,75.46
2023-03-06T10:01:53.106Z,73.94
2023-03-06T10:02:53.242Z,74.08
2023-03-06T10:03:53.100Z,72.36
2023-03-06T10:04:53.148Z,70.94
2023-03-06T10:05:53.068Z,71.25
2023-03-06T10:06:53.058Z,72.18
2023-03-06T10:07:53.064Z,71.97
2023-03-06T10:08:53.043Z,72.39
2023-03-06T10:09:53.033Z,72.74
2023-03-06T10:11:25.422Z,72.94
2023-03-06T10:11:53.008Z,74.19
2023-03-06T10:12:53.003Z,74.08
2023-03-06T10:13:52.999Z,74.08
2023-03-06T10:14:53.005Z,73.84
2023-03-06T10:15:52.968Z,73.15
2023-03-06T10:16:52.937Z,73.25
2023-03-06T10:17:53.942Z,74.29
2023-03-06T10:18:52.980Z,73.67
2023-03-06T10:19:52.934Z,73.63
2023-03-06T10:20:52.926Z,73.22
2023-03-06T10:21:52.889Z,71.97
2023-03-06T10:23:00.607Z,72.91
2023-03-06T10:23:54.907Z,71.45
2023-03-06T10:24:52.853Z,71.97
2023-03-06T10:25:52.855Z,73.08
2023-03-06T10:26:52.959Z,72.80
2023-03-06T10:27:52.840Z,71.56
2023-03-06T10:28:52.881Z,72.80
2023-03-06T10:30:02.204Z,72.28
2023-03-06T10:30:54.831Z,72.05
2023-03-06T10:31:52.780Z,70.62
2023-03-06T10:32:52.794Z,71.45
2023-03-06T10:33:52.775Z,71.49
2023-03-06T10:34:52.745Z,71.49
2023-03-06T10:35:52.774Z,71.91
2023-03-06T10:36:52.755Z,72.42
2023-03-06T10:37:52.710Z,71.08
2023-03-06T10:38:52.752Z,71.77
2023-03-06T10:39:52.704Z,72.08
2023-03-06T10:40:52.685Z,72.22
2023-03-06T10:41:52.670Z,72.80
2023-03-06T10:43:09.387Z,72.91
2023-03-06T10:43:54.666Z,72.39
2023-03-06T10:44:52.634Z,70.83
2023-03-06T10:45:52.631Z,71.04
2023-03-06T10:46:52.665Z,71.77
2023-03-06T10:47:52.628Z,73.01
2023-03-06T10:48:52.608Z,72.01
2023-03-06T10:49:52.569Z,72.18
2023-03-06T10:50:53.579Z,73.11
2023-03-06T10:51:52.586Z,73.05
2023-03-06T10:52:52.547Z,72.91
2023-03-06T10:53:52.572Z,72.94
2023-03-06T10:54:52.563Z,72.28
2023-03-06T10:55:52.518Z,71.39
2023-03-06T10:56:52.504Z,71.28
2023-03-06T10:57:52.505Z,71.91
2023-03-06T10:58:52.496Z,70.10
2023-03-06T10:59:52.478Z,70.00
2023-03-06T11:00:52.616Z,69.48
2023-03-06T11:01:52.506Z,69.48
2023-03-06T11:02:52.428Z,68.76
2023-03-06T11:03:52.451Z,69.21
2023-03-06T11:04:52.525Z,69.10
2023-03-06T11:05:52.403Z,68.17
2023-03-06T11:06:52.395Z,68.38
2023-03-06T11:07:52.385Z,68.38
2023-03-06T11:08:52.386Z,69.00
2023-03-06T11:09:52.365Z,68.48
2023-03-06T11:10:53.168Z,69.31
2023-03-06T11:11:52.335Z,68.79
2023-03-06T11:12:52.321Z,68.38
2023-03-06T11:13:52.391Z,68.90
2023-03-06T11:14:52.318Z,68.90
2023-03-06T11:15:52.301Z,68.38
2023-03-06T11:16:52.282Z,68.48
2023-03-06T11:17:52.284Z,69.69
2023-03-06T11:18:52.284Z,69.90
2023-03-06T11:19:52.288Z,68.86
2023-03-06T11:20:53.221Z,69.14
2023-03-06T11:21:53.230Z,69.76
2023-03-06T11:22:52.229Z,69.42
2023-03-06T11:23:52.246Z,68.31
2023-03-06T11:24:52.195Z,68.86
2023-03-06T11:25:52.190Z,69.24
2023-03-06T11:26:52.191Z,69.14
2023-03-06T11:27:52.169Z,68.31
2023-03-06T11:28:52.170Z,68.44
2023-03-06T11:29:52.175Z,69.38
2023-03-06T11:30:52.133Z,69.27
2023-03-06T11:31:52.115Z,69.62
2023-03-06T11:32:52.124Z,70.00
2023-03-06T11:33:52.101Z,70.10
2023-03-06T11:34:52.159Z,69.59
2023-03-06T11:35:52.118Z,70.49
2023-03-06T11:36:52.058Z,70.15
2023-03-06T11:37:52.068Z,68.62
2023-03-06T11:38:52.057Z,68.00
2023-03-06T11:39:52.051Z,67.48
2023-03-06T11:40:52.012Z,68.31
2023-03-06T11:41:52.007Z,67.07
2023-03-06T11:42:51.996Z,68.21
2023-03-06T11:43:51.988Z,67.66
2023-03-06T11:44:52.031Z,68.18
2023-03-06T11:45:51.970Z,66.62
2023-03-06T11:46:51.971Z,67.58
2023-03-06T11:47:51.952Z,66.96
2023-03-06T11:48:51.931Z,67.69
2023-03-06T11:49:51.947Z,67.55
2023-03-06T11:50:51.913Z,68.18
2023-03-06T11:51:51.905Z,67.94
2023-03-06T11:52:51.897Z,68.18
2023-03-06T11:53:51.874Z,67.14
2023-03-06T11:54:51.870Z,66.52
2023-03-06T11:55:51.906Z,67.76
2023-03-06T11:56:51.849Z,68.38
2023-03-06T11:57:51.836Z,65.00
2023-03-06T11:58:51.836Z,66.89
2023-03-06T11:59:51.832Z,67.82
2023-03-06T12:00:51.808Z,68.62
2023-03-06T12:01:51.805Z,68.41
2023-03-06T12:02:51.782Z,68.31
2023-03-06T12:03:51.774Z,68.41
2023-03-06T12:04:51.863Z,68.55
2023-03-06T12:05:51.774Z,69.35
2023-03-06T12:06:51.757Z,70.00
2023-03-06T12:07:51.733Z,69.56
2023-03-06T12:08:51.736Z,69.27
2023-03-06T12:09:51.737Z,68.00
2023-03-06T12:10:52.239Z,68.34
2023-03-06T12:11:51.713Z,69.17
2023-03-06T12:12:51.694Z,69.76
2023-03-06T12:14:52.711Z,68.83
2023-03-06T12:15:51.650Z,68.31
2023-03-06T12:16:51.734Z,68.70
2023-03-06T12:17:51.636Z,68.28
2023-03-06T12:18:51.634Z,68.41
2023-03-06T12:19:51.637Z,68.83
2023-03-06T12:20:51.607Z,68.21
2023-03-06T12:21:51.593Z,68.86
2023-03-06T12:22:57.875Z,69.04
2023-03-06T12:23:53.577Z,69.45
2023-03-06T12:24:51.585Z,69.59
2023-03-06T12:25:51.568Z,69.48
2023-03-06T12:26:51.582Z,69.79
2023-03-06T12:27:51.530Z,69.48
2023-03-06T12:28:51.524Z,69.07
2023-03-06T12:29:51.520Z,68.76
2023-03-06T12:30:51.517Z,68.65
2023-03-06T12:31:51.550Z,68.65
2023-03-06T12:32:51.526Z,68.76
2023-03-06T12:33:51.488Z,69.59
2023-03-06T12:34:51.470Z,69.48
2023-03-06T12:35:51.458Z,69.69
2023-03-06T12:36:51.472Z,69.66
2023-03-06T12:37:51.433Z,69.97
2023-03-06T12:38:51.428Z,69.07
2023-03-06T12:39:51.444Z,69.45
2023-03-06T12:40:51.401Z,69.45
2023-03-06T12:41:51.397Z,69.79
2023-03-06T12:42:51.388Z,69.59
2023-03-06T12:43:51.400Z,69.48
2023-03-06T12:44:51.396Z,69.52
2023-03-06T12:45:51.384Z,70.35
2023-03-06T12:46:51.353Z,70.56
2023-03-06T12:47:51.353Z,70.52
2023-03-06T12:48:51.337Z,70.00
2023-03-06T12:49:51.338Z,70.10
2023-03-06T12:50:51.312Z,70.42
2023-03-06T12:51:51.303Z,70.62
2023-03-06T12:52:51.283Z,70.21
2023-03-06T12:53:51.308Z,71.80
2023-03-06T12:54:51.325Z,71.14
2023-03-06T12:55:51.270Z,71.04
2023-03-06T12:56:51.261Z,69.90
2023-03-06T12:57:51.240Z,71.45
2023-03-06T12:58:51.230Z,70.90
2023-03-06T12:59:51.231Z,71.25
2023-03-06T13:00:55.324Z,71.66
2023-03-06T13:01:53.258Z,71.66
2023-03-06T13:02:51.222Z,72.70
2023-03-06T13:03:51.184Z,73.32
2023-03-06T13:04:51.193Z,72.84
2023-03-06T13:05:51.164Z,73.63